Time;durP1;ratioP1;P1;durP2;ratioP2;P2;SDS_P1;SDS_P2;PMS_P1;PMS_P2;Temp;Humidity;BMP_temperature;BMP_pressure;BME280_temperature;BME280_humidity;BME280_pressure;Samples;Min_cycle;Max_cycle;Signal;HPM_P1;HPM_P2
2023/04/23 00:01:07;;;;;;;0.30;0.20;;;21.90;51.50;;;;;;6174953;28;20494;-47
2023/04/23 00:04:10;;;;;;;0.70;0.38;;;22.20;51.60;;;;;;6174838;28;20051;-46
2023/04/23 00:07:13;;;;;;;0.20;0.20;;;21.80;51.50;;;;;;6174286;28;20498;-46
2023/04/23 00:10:15;;;;;;;0.95;0.30;;;21.70;51.50;;;;;;6174758;28;20503;-47
2023/04/23 00:13:17;;;;;;;0.52;0.22;;;21.60;51.50;;;;;;6174478;28;20049;-46
2023/04/23 00:16:19;;;;;;;0.30;0.10;;;21.90;51.80;;;;;;6173512;28;20047;-47
2023/04/23 00:19:23;;;;;;;0.60;0.20;;;21.80;51.80;;;;;;6174708;28;20038;-45
2023/04/23 00:22:24;;;;;;;;;;;21.70;52.00;;;;;;6175602;28;20538;-45
2023/04/23 00:25:26;;;;;;;0.88;0.20;;;21.70;52.30;;;;;;6174331;28;19929;-45
2023/04/23 00:28:29;;;;;;;0.50;0.20;;;21.80;52.00;;;;;;6174482;28;20078;-47
2023/04/23 00:31:32;;;;;;;0.40;0.30;;;21.70;52.20;;;;;;6174399;28;20042;-47
2023/04/23 00:34:33;;;;;;;;;;;22.10;52.40;;;;;;6174570;28;20058;-47
2023/04/23 00:37:35;;;;;;;0.30;0.17;;;21.70;52.70;;;;;;6174708;28;19922;-49
2023/04/23 00:40:37;;;;;;;;;;;21.80;52.50;;;;;;6175045;28;20050;-45
2023/04/23 00:43:38;;;;;;;0.85;0.40;;;22.20;52.60;;;;;;6174136;28;19922;-48
2023/04/23 00:46:39;;;;;;;;;;;21.70;52.70;;;;;;6174799;28;20043;-46
2023/04/23 00:49:42;;;;;;;0.10;0.10;;;22.00;53.20;;;;;;6174079;28;19968;-47
2023/04/23 00:52:43;;;;;;;0.17;0.17;;;21.70;52.80;;;;;;6173896;28;20487;-46
2023/04/23 00:55:49;;;;;;;0.30;0.20;;;21.70;53.30;;;;;;6174232;28;20507;-47
2023/04/23 00:58:51;;;;;;;0.32;0.10;;;21.60;53.30;;;;;;6174015;28;20055;-48
2023/04/23 01:01:53;;;;;;;0.17;0.13;;;21.60;53.30;;;;;;6174760;28;20043;-46
2023/04/23 01:04:55;;;;;;;0.65;0.20;;;21.60;53.20;;;;;;6174153;28;20514;-45
2023/04/23 01:07:57;;;;;;;0.10;0.10;;;21.60;53.20;;;;;;6173993;28;20442;-48
2023/04/23 01:11:01;;;;;;;0.28;0.10;;;22.00;53.50;;;;;;6173656;28;20042;-47
2023/04/23 01:14:03;;;;;;;0.20;0.20;;;21.70;53.10;;;;;;6172701;28;20039;-45
2023/04/23 01:17:07;;;;;;;0.55;0.20;;;21.70;53.30;;;;;;6173873;28;20054;-48
2023/04/23 01:20:09;;;;;;;0.35;0.20;;;21.80;53.50;;;;;;6176744;28;20051;-48
2023/04/23 01:23:11;;;;;;;0.30;0.20;;;21.60;53.30;;;;;;6178060;28;20047;-48
2023/04/23 01:26:13;;;;;;;0.35;0.20;;;22.00;53.60;;;;;;6177955;28;20422;-45
2023/04/23 01:29:19;;;;;;;0.68;0.20;;;21.60;53.50;;;;;;6177586;28;20427;-45
2023/04/23 01:32:21;;;;;;;0.28;0.28;;;21.60;53.40;;;;;;6176441;28;20050;-45
2023/04/23 01:35:23;;;;;;;0.30;0.10;;;21.70;53.60;;;;;;6177619;28;20143;-47
2023/04/23 01:38:29;;;;;;;0.22;0.13;;;21.90;53.80;;;;;;6160442;28;20050;-45
2023/04/23 01:41:31;;;;;;;0.40;0.30;;;21.60;53.80;;;;;;6176357;28;20446;-48
2023/04/23 01:44:33;;;;;;;0.22;0.20;;;21.80;54.10;;;;;;6177535;28;20391;-45
2023/04/23 01:47:35;;;;;;;0.20;0.20;;;21.60;54.20;;;;;;6177417;28;20053;-47
2023/04/23 01:50:38;;;;;;;0.50;0.32;;;21.70;54.40;;;;;;6177543;28;20509;-46
2023/04/23 01:53:40;;;;;;;0.22;0.10;;;21.90;53.00;;;;;;6177316;28;20455;-46
2023/04/23 01:56:46;;;;;;;0.40;0.10;;;21.60;54.60;;;;;;6177146;28;20479;-47
2023/04/23 01:59:49;;;;;;;0.50;0.28;;;21.50;54.50;;;;;;6177706;28;20050;-46
2023/04/23 02:02:52;;;;;;;0.35;0.15;;;22.00;54.90;;;;;;6177226;28;20398;-47
2023/04/23 02:05:54;;;;;;;0.60;0.10;;;21.60;54.90;;;;;;6176992;28;20039;-46
2023/04/23 02:08:56;;;;;;;0.50;0.30;;;21.60;54.90;;;;;;6175614;28;20062;-48
2023/04/23 02:11:58;;;;;;;0.28;0.20;;;21.60;69.50;;;;;;6176937;28;20049;-47
2023/04/23 02:15:00;;;;;;;0.20;0.20;;;21.60;55.20;;;;;;6175734;28;20074;-47
2023/04/23 02:18:01;;;;;;;0.90;0.20;;;21.50;55.30;;;;;;6176630;28;20051;-45
2023/04/23 02:21:03;;;;;;;0.75;0.20;;;21.50;55.30;;;;;;6176932;28;20074;-46
2023/04/23 02:24:05;;;;;;;;;;;21.50;55.40;;;;;;6177098;28;20050;-49
2023/04/23 02:27:07;;;;;;;0.28;0.20;;;21.60;55.60;;;;;;6176556;28;19922;-47
2023/04/23 02:30:10;;;;;;;;;;;21.90;55.50;;;;;;6176823;28;20632;-45
2023/04/23 02:33:11;;;;;;;0.55;0.20;;;21.80;55.60;;;;;;6176619;28;19922;-47
2023/04/23 02:36:13;;;;;;;;;;;21.60;55.50;;;;;;6177158;28;20046;-45
2023/04/23 02:39:15;;;;;;;0.40;0.20;;;21.50;55.70;;;;;;6176803;28;19922;-46
2023/04/23 02:42:17;;;;;;;0.32;0.13;;;21.50;55.40;;;;;;6175267;28;20058;-48
2023/04/23 02:45:19;;;;;;;;;;;21.60;55.70;;;;;;6176451;28;20069;-47
2023/04/23 02:48:21;;;;;;;0.10;0.10;;;21.50;55.90;;;;;;6176623;28;20314;-46
2023/04/23 02:51:22;;;;;;;0.10;0.10;;;21.60;55.70;;;;;;6176226;28;20134;-46
2023/04/23 02:54:25;;;;;;;0.10;0.10;;;21.60;55.80;;;;;;6174908;28;20402;-46
2023/04/23 02:57:27;;;;;;;0.10;0.10;;;21.30;55.80;;;;;;6176325;28;20045;-46
2023/04/23 03:00:28;;;;;;;0.28;0.20;;;21.60;56.00;;;;;;6176456;28;20100;-48
2023/04/23 03:03:30;;;;;;;0.10;0.10;;;21.50;55.80;;;;;;6175857;28;20053;-46
2023/04/23 03:06:34;;;;;;;0.35;0.17;;;21.40;55.80;;;;;;6175035;28;20057;-47
2023/04/23 03:09:36;;;;;;;0.10;0.10;;;21.50;55.80;;;;;;6175918;28;20078;-46
2023/04/23 03:12:38;;;;;;;0.20;0.20;;;21.50;55.80;;;;;;6175686;28;20058;-50
2023/04/23 03:15:40;;;;;;;0.15;0.13;;;21.50;55.80;;;;;;6176299;28;20050;-46
2023/04/23 03:18:42;;;;;;;0.10;0.10;;;21.50;55.60;;;;;;6158156;28;20054;-46
2023/04/23 03:21:43;;;;;;;;;;;21.50;55.90;;;;;;6175973;28;20047;-46
2023/04/23 03:24:47;;;;;;;0.10;0.10;;;21.50;56.00;;;;;;6176046;28;19922;-46
2023/04/23 03:27:51;;;;;;;0.10;0.10;;;21.50;55.70;;;;;;6175626;28;20410;-46
2023/04/23 03:30:53;;;;;;;0.10;0.10;;;21.60;55.70;;;;;;6175421;28;20074;-46
2023/04/23 03:33:54;;;;;;;0.43;0.15;;;21.40;55.70;;;;;;6175822;28;20043;-47
2023/04/23 03:37:03;;;;;;;0.13;0.13;;;21.50;55.70;;;;;;6175439;28;20047;-46
2023/04/23 03:40:09;;;;;;;0.20;0.10;;;21.40;55.70;;;;;;6175386;28;20065;-48
2023/04/23 03:48:07;;;;;;;0.40;0.20;;;21.90;54.20;;;;;;6175541;28;20129;-47
2023/04/23 03:51:09;;;;;;;0.20;0.20;;;21.40;55.80;;;;;;6174961;28;20133;-45
2023/04/23 03:54:17;;;;;;;0.20;0.20;;;21.90;56.00;;;;;;6175821;28;20031;-49
2023/04/23 03:57:35;;;;;;;0.20;0.15;;;21.40;55.80;;;;;;6175219;28;20511;-45
2023/04/23 04:00:53;;;;;;;0.17;0.10;;;21.40;55.60;;;;;;6175636;28;20078;-46
2023/04/23 04:03:55;;;;;;;0.38;0.15;;;21.40;55.70;;;;;;6174848;28;20047;-46
2023/04/23 04:06:59;;;;;;;0.15;0.15;;;21.40;55.60;;;;;;6175000;28;20082;-46
2023/04/23 04:10:02;;;;;;;0.20;0.20;;;21.30;55.60;;;;;;6174823;28;20097;-48
2023/04/23 04:13:04;;;;;;;0.20;0.20;;;21.40;55.70;;;;;;6174424;28;20502;-46
2023/04/23 04:16:05;;;;;;;0.30;0.10;;;21.40;55.80;;;;;;6174999;28;20042;-47
2023/04/23 04:19:07;;;;;;;0.47;0.20;;;21.30;55.70;;;;;;6174750;28;20043;-47
2023/04/23 04:22:08;;;;;;;;;;;21.30;55.80;;;;;;6174924;28;20055;-47
2023/04/23 04:25:11;;;;;;;0.10;0.10;;;21.80;56.30;;;;;;6174832;28;19972;-46
2023/04/23 04:28:14;;;;;;;0.40;0.20;;;21.50;55.70;;;;;;6175175;28;20043;-47
2023/04/23 04:31:16;;;;;;;0.20;0.20;;;21.50;56.10;;;;;;6174656;28;20081;-46
2023/04/23 04:34:17;;;;;;;0.32;0.20;;;21.40;55.90;;;;;;6174867;28;20483;-45
2023/04/23 04:37:20;;;;;;;;;;;21.50;55.80;;;;;;6174613;28;20043;-48
2023/04/23 04:40:21;;;;;;;0.17;0.10;;;21.40;56.00;;;;;;6174625;28;19922;-49
2023/04/23 04:43:23;;;;;;;0.30;0.10;;;21.30;55.70;;;;;;6174574;28;20047;-47
2023/04/23 04:46:27;;;;;;;0.68;0.10;;;21.50;55.70;;;;;;6174306;28;20054;-47
2023/04/23 04:49:29;;;;;;;0.30;0.10;;;21.30;55.50;;;;;;6174049;28;20094;-47
2023/04/23 04:52:30;;;;;;;0.00;0.00;;;21.50;55.70;;;;;;6174343;28;20043;-47
2023/04/23 04:55:32;;;;;;;;;;;21.20;55.40;;;;;;6178247;28;20667;-48
2023/04/23 04:58:34;;;;;;;0.10;0.10;;;21.50;55.90;;;;;;6178095;28;20333;-46
2023/04/23 05:01:36;;;;;;;0.20;0.10;;;21.50;55.50;;;;;;6178553;28;20491;-46
2023/04/23 05:04:37;;;;;;;0.17;0.17;;;21.30;55.30;;;;;;6178154;28;20046;-46
2023/04/23 05:07:38;;;;;;;;;;;21.30;55.30;;;;;;6179217;28;20472;-47
2023/04/23 05:10:40;;;;;;;0.10;0.10;;;21.40;55.60;;;;;;6178368;28;20021;-47
2023/04/23 05:13:43;;;;;;;;;;;21.30;55.30;;;;;;6178877;28;20042;-46
2023/04/23 05:16:45;;;;;;;0.20;0.10;;;21.30;55.40;;;;;;6178026;28;19922;-47
2023/04/23 05:19:46;;;;;;;;;;;21.30;55.20;;;;;;6178650;28;20051;-45
2023/04/23 05:22:47;;;;;;;0.45;0.20;;;21.90;55.70;;;;;;6178130;28;19961;-44
2023/04/23 05:25:50;;;;;;;;;;;21.30;55.10;;;;;;6179042;28;20073;-46
2023/04/23 05:28:54;;;;;;;0.25;0.15;;;21.20;55.20;;;;;;6178051;28;20025;-47
2023/04/23 05:31:55;;;;;;;0.35;0.20;;;21.20;55.00;;;;;;6177777;28;20113;-46
2023/04/23 05:34:58;;;;;;;;;;;21.30;55.00;;;;;;6178125;28;20388;-45
2023/04/23 05:38:01;;;;;;;0.40;0.28;;;21.20;55.10;;;;;;6177925;28;20271;-46
2023/04/23 05:41:03;;;;;;;0.28;0.20;;;21.30;55.00;;;;;;6177612;28;20062;-47
2023/04/23 05:44:04;;;;;;;;;;;21.20;55.00;;;;;;6178370;28;20043;-48
2023/04/23 05:47:06;;;;;;;0.20;0.20;;;21.30;55.30;;;;;;6177796;28;19922;-48
2023/04/23 05:50:10;;;;;;;;;;;21.60;55.10;;;;;;6178261;28;20046;-46
2023/04/23 05:53:11;;;;;;;0.10;0.10;;;22.00;55.50;;;;;;6177305;28;20295;-48
2023/04/23 05:56:13;;;;;;;0.10;0.10;;;21.20;54.90;;;;;;6177900;28;20418;-48
2023/04/23 05:59:15;;;;;;;;;;;21.20;54.90;;;;;;6177753;28;20047;-48
2023/04/23 06:02:19;;;;;;;0.20;0.20;;;21.20;55.10;;;;;;6177154;28;20349;-48
2023/04/23 06:05:23;;;;;;;0.30;0.20;;;21.40;54.90;;;;;;6176024;28;20043;-47
2023/04/23 06:08:25;;;;;;;0.28;0.10;;;21.10;54.70;;;;;;6177253;28;20047;-46
2023/04/23 06:11:26;;;;;;;;;;;21.30;54.90;;;;;;6178004;28;20388;-45
2023/04/23 06:14:28;;;;;;;0.20;0.10;;;21.60;55.30;;;;;;6176915;28;19929;-46
2023/04/23 06:17:30;;;;;;;0.10;0.10;;;21.40;55.00;;;;;;6177093;28;20049;-45
2023/04/23 06:20:31;;;;;;;;;;;21.20;54.90;;;;;;6177621;28;20070;-45
2023/04/23 06:23:34;;;;;;;0.10;0.10;;;21.20;55.10;;;;;;6176727;28;19998;-46
2023/04/23 06:26:35;;;;;;;0.30;0.30;;;21.30;54.80;;;;;;6175544;28;20053;-48
2023/04/23 06:29:45;;;;;;;0.10;0.10;;;21.30;55.00;;;;;;6176681;28;20052;-49
2023/04/23 06:32:47;;;;;;;0.10;0.10;;;21.10;55.00;;;;;;6176520;28;20047;-49
2023/04/23 06:35:49;;;;;;;;;;;21.30;55.10;;;;;;6176150;28;20043;-44
2023/04/23 06:38:50;;;;;;;0.10;0.10;;;21.10;55.30;;;;;;6176689;28;19922;-47
2023/04/23 06:41:52;;;;;;;0.30;0.30;;;21.10;55.00;;;;;;6176387;28;20062;-46
2023/04/23 06:45:02;;;;;;;0.28;0.20;;;21.20;54.80;;;;;;6176676;28;20055;-45
2023/04/23 06:48:07;;;;;;;0.32;0.28;;;21.20;55.10;;;;;;6176285;28;20558;-47
2023/04/23 06:51:08;;;;;;;;;;;21.30;55.20;;;;;;6176629;28;20054;-46
2023/04/23 06:54:09;;;;;;;0.40;0.17;;;21.60;55.80;;;;;;6176664;28;19957;-46
2023/04/23 06:57:11;;;;;;;0.20;0.20;;;21.30;55.30;;;;;;6176191;28;20035;-44
2023/04/23 07:00:13;;;;;;;;;;;21.10;55.30;;;;;;6176535;28;20042;-46
2023/04/23 07:03:16;;;;;;;0.20;0.10;;;20.10;55.00;;;;;;6176347;28;19945;-49
2023/04/23 07:06:18;;;;;;;0.15;0.10;;;21.20;55.30;;;;;;6176024;28;20193;-49
2023/04/23 07:09:19;;;;;;;0.13;0.13;;;21.10;55.40;;;;;;6175897;28;20109;-45
2023/04/23 07:12:21;;;;;;;0.13;0.10;;;21.20;55.60;;;;;;6176138;28;20042;-46
2023/04/23 07:15:23;;;;;;;;;;;21.60;56.60;;;;;;6176316;28;20510;-48
2023/04/23 07:18:24;;;;;;;0.40;0.20;;;21.20;56.00;;;;;;6175511;28;19922;-46
2023/04/23 07:21:27;;;;;;;0.10;0.10;;;21.20;55.70;;;;;;6175898;28;20411;-48
2023/04/23 07:24:30;;;;;;;0.20;0.20;;;21.30;55.80;;;;;;6174388;28;20050;-45
2023/04/23 07:27:32;;;;;;;0.25;0.20;;;21.20;55.70;;;;;;6175381;28;20062;-46
2023/04/23 07:30:34;;;;;;;;;;;21.30;56.00;;;;;;6176234;28;20053;-46
2023/04/23 07:33:35;;;;;;;;;;;21.10;56.10;;;;;;6176062;28;20360;-47
2023/04/23 07:36:39;;;;;;;0.10;0.10;;;21.10;56.00;;;;;;6175399;28;19922;-46
2023/04/23 07:39:40;;;;;;;;;;;21.10;55.50;;;;;;6176148;28;20511;-46
2023/04/23 07:42:45;;;;;;;0.10;0.10;;;21.50;55.60;;;;;;6175412;28;19922;-47
2023/04/23 07:45:47;;;;;;;0.10;0.10;;;21.20;55.90;;;;;;6175215;28;20072;-48
2023/04/23 07:48:49;;;;;;;0.10;0.10;;;21.10;54.80;;;;;;6175073;28;20121;-44
2023/04/23 07:51:50;;;;;;;;;;;21.20;54.50;;;;;;6175638;28;20082;-48
2023/04/23 07:54:51;;;;;;;0.10;0.10;;;21.10;54.40;;;;;;6175059;28;19922;-45
2023/04/23 07:57:53;;;;;;;0.03;0.03;;;21.30;54.30;;;;;;6175851;28;20050;-45
2023/04/23 08:00:55;;;;;;;;;;;21.10;53.80;;;;;;6175820;28;20446;-46
2023/04/23 08:03:56;;;;;;;;;;;21.70;54.40;;;;;;6175327;28;19945;-46
2023/04/23 08:07:00;;;;;;;0.10;0.10;;;21.10;53.70;;;;;;6174800;28;19922;-46
2023/04/23 08:10:04;;;;;;;;;;;21.20;53.80;;;;;;6175397;28;20042;-48
2023/04/23 08:13:06;;;;;;;0.10;0.10;;;21.30;54.10;;;;;;6174885;28;19929;-46
2023/04/23 08:16:08;;;;;;;0.10;0.10;;;21.20;53.40;;;;;;6173835;28;20387;-47
2023/04/23 08:19:10;;;;;;;0.15;0.15;;;21.20;53.20;;;;;;6174845;28;20047;-48
2023/04/23 08:22:14;;;;;;;0.10;0.10;;;21.20;53.00;;;;;;6173534;28;20111;-46
2023/04/23 08:25:17;;;;;;;0.10;0.10;;;21.40;53.10;;;;;;6174484;28;20047;-45
2023/04/23 08:28:19;;;;;;;0.30;0.10;;;21.40;52.90;;;;;;6174005;28;20050;-46
2023/04/23 08:31:21;;;;;;;0.10;0.10;;;21.20;52.50;;;;;;6174494;28;20491;-47
2023/04/23 08:34:28;;;;;;;0.10;0.10;;;21.20;52.60;;;;;;6174030;28;20097;-49
2023/04/23 08:37:29;;;;;;;;;;;21.50;52.50;;;;;;6175067;28;20043;-48
2023/04/23 08:40:36;;;;;;;0.10;0.10;;;22.10;53.10;;;;;;6174298;28;19925;-46
2023/04/23 08:43:46;;;;;;;0.10;0.10;;;21.20;52.20;;;;;;6173117;28;20043;-45
2023/04/23 08:46:48;;;;;;;0.10;0.10;;;21.30;52.20;;;;;;6174517;28;20035;-47
2023/04/23 08:49:53;;;;;;;0.10;0.10;;;21.30;52.30;;;;;;6174191;28;20046;-48
2023/04/23 08:52:56;;;;;;;0.10;0.10;;;21.30;52.00;;;;;;6172913;28;20047;-48
2023/04/23 08:55:58;;;;;;;0.20;0.10;;;21.40;52.20;;;;;;6172998;28;20047;-46
2023/04/23 08:59:02;;;;;;;0.10;0.10;;;21.40;52.30;;;;;;6174532;28;20071;-47
2023/04/23 09:02:08;;;;;;;0.10;0.10;;;21.30;52.10;;;;;;6174735;28;20474;-47
2023/04/23 09:05:10;;;;;;;0.10;0.10;;;21.70;52.30;;;;;;6174631;28;20053;-48
2023/04/23 09:08:12;;;;;;;0.20;0.20;;;21.50;51.90;;;;;;6174074;28;20136;-46
2023/04/23 09:11:14;;;;;;;0.13;0.10;;;21.40;52.00;;;;;;6173793;28;20046;-48
2023/04/23 09:14:16;;;;;;;0.10;0.10;;;21.50;51.90;;;;;;6173646;28;20093;-46
2023/04/23 09:17:18;;;;;;;0.10;0.10;;;21.40;51.90;;;;;;6173938;28;20073;-46
2023/04/23 09:20:20;;;;;;;0.10;0.10;;;21.60;51.80;;;;;;6157271;28;20231;-48
2023/04/23 09:23:22;;;;;;;0.10;0.10;;;21.80;51.90;;;;;;6173632;28;20129;-45
2023/04/23 09:26:24;;;;;;;0.10;0.10;;;21.80;51.70;;;;;;6173802;28;20367;-49
2023/04/23 09:29:25;;;;;;;0.15;0.15;;;21.30;52.30;;;;;;6173932;28;20062;-45
2023/04/23 09:32:32;;;;;;;0.10;0.10;;;21.60;51.70;;;;;;6173491;28;20042;-46
2023/04/23 09:35:34;;;;;;;0.15;0.15;;;21.90;51.60;;;;;;6173729;28;20069;-46
2023/04/23 09:38:37;;;;;;;0.10;0.10;;;21.50;51.50;;;;;;6173552;28;20042;-47
2023/04/23 09:41:39;;;;;;;0.10;0.10;;;21.50;51.60;;;;;;6177832;28;20050;-46
2023/04/23 09:44:41;;;;;;;0.10;0.10;;;22.00;51.90;;;;;;6177717;28;20046;-45
2023/04/23 09:47:48;;;;;;;;;;;21.40;51.60;;;;;;6177928;28;20093;-47
2023/04/23 09:50:54;;;;;;;0.22;0.10;;;21.40;51.70;;;;;;6177571;28;19929;-48
2023/04/23 09:53:57;;;;;;;0.13;0.13;;;21.70;51.80;;;;;;6177721;28;20046;-47
2023/04/23 09:57:01;;;;;;;0.10;0.10;;;22.10;50.30;;;;;;6178011;28;20523;-50
2023/04/23 10:00:13;;;;;;;0.20;0.17;;;21.90;52.10;;;;;;6177226;28;20091;-47
2023/04/23 10:03:26;;;;;;;0.50;0.20;;;21.90;52.70;;;;;;6176732;28;20050;-47
2023/04/23 10:06:31;;;;;;;0.10;0.10;;;21.60;52.10;;;;;;6175936;28;20053;-46
2023/04/23 10:09:37;;;;;;;0.10;0.10;;;21.40;51.60;;;;;;6175823;28;20148;-50
2023/04/23 10:12:40;;;;;;;0.10;0.10;;;21.70;52.30;;;;;;6177256;28;20094;-46
2023/04/23 10:15:56;;;;;;;0.55;0.20;;;22.00;52.40;;;;;;6177397;28;20049;-46
2023/04/23 10:19:10;;;;;;;0.10;0.10;;;21.90;52.60;;;;;;6176876;28;20047;-49
2023/04/23 10:22:15;;;;;;;0.30;0.30;;;21.60;52.40;;;;;;6176666;28;20053;-47
2023/04/23 10:25:23;;;;;;;0.20;0.20;;;21.70;52.60;;;;;;6176937;28;20047;-47
2023/04/23 10:28:30;;;;;;;0.10;0.10;;;22.00;52.80;;;;;;6176749;28;20070;-47
2023/04/23 10:31:32;;;;;;;0.20;0.20;;;21.60;52.80;;;;;;6177160;28;20051;-47
2023/04/23 10:34:35;;;;;;;0.13;0.13;;;22.00;53.20;;;;;;6175686;28;20054;-46
2023/04/23 10:37:38;;;;;;;0.20;0.20;;;21.60;53.30;;;;;;6177352;28;20045;-48
2023/04/23 10:40:46;;;;;;;0.43;0.10;;;21.80;53.70;;;;;;6177157;28;20373;-49
2023/04/23 10:43:48;;;;;;;0.30;0.20;;;21.60;53.40;;;;;;6175581;28;20400;-47
2023/04/23 10:46:52;;;;;;;0.38;0.20;;;21.60;53.40;;;;;;6177001;28;20395;-46
2023/04/23 10:49:56;;;;;;;0.52;0.20;;;22.00;53.60;;;;;;6175131;28;20043;-48
2023/04/23 10:52:58;;;;;;;0.17;0.17;;;22.10;53.70;;;;;;6176128;28;20039;-49
2023/04/23 10:56:09;;;;;;;0.20;0.10;;;21.80;53.40;;;;;;6176340;28;20051;-48
2023/04/23 10:59:19;;;;;;;0.20;0.20;;;21.50;53.70;;;;;;6175751;28;20038;-49
2023/04/23 11:02:23;;;;;;;0.10;0.10;;;22.00;53.20;;;;;;6174984;28;20507;-47
2023/04/23 11:05:28;;;;;;;0.30;0.10;;;22.10;53.30;;;;;;6174969;28;20049;-48
2023/04/23 11:08:31;;;;;;;0.10;0.10;;;21.70;53.20;;;;;;6176410;28;20090;-46
2023/04/23 11:11:39;;;;;;;0.17;0.17;;;21.70;52.90;;;;;;6176032;28;20043;-49
2023/04/23 11:14:45;;;;;;;0.10;0.10;;;21.60;53.00;;;;;;6174829;28;20043;-47
2023/04/23 11:18:01;;;;;;;0.20;0.17;;;21.60;52.90;;;;;;6174788;28;20129;-45
2023/04/23 11:21:04;;;;;;;0.20;0.20;;;21.50;52.90;;;;;;6176023;28;20406;-48
2023/04/23 11:24:12;;;;;;;0.10;0.10;;;21.90;53.10;;;;;;6176338;28;20467;-46
2023/04/23 11:27:15;;;;;;;0.25;0.20;;;21.80;53.20;;;;;;6175447;28;20057;-49
2023/04/23 11:30:18;;;;;;;0.50;0.20;;;21.70;53.20;;;;;;6158446;28;20038;-48
2023/04/23 11:33:22;;;;;;;0.30;0.20;;;21.60;53.20;;;;;;6176098;28;20451;-46
2023/04/23 11:36:26;;;;;;;0.10;0.10;;;21.60;52.40;;;;;;6175403;28;20051;-49
2023/04/23 11:39:27;;;;;;;0.20;0.20;;;21.70;53.40;;;;;;6175885;28;20047;-46
2023/04/23 11:42:30;;;;;;;0.38;0.10;;;21.80;53.60;;;;;;6175489;28;20049;-46
2023/04/23 11:45:31;;;;;;;0.57;0.10;;;21.70;53.70;;;;;;6175759;28;20046;-47
2023/04/23 11:48:34;;;;;;;0.20;0.13;;;21.90;53.80;;;;;;6175632;28;20051;-46
2023/04/23 11:51:43;;;;;;;0.10;0.10;;;21.80;53.90;;;;;;6175370;28;20047;-46
2023/04/23 11:54:44;;;;;;;0.20;0.10;;;22.20;54.20;;;;;;6175081;28;20094;-46
2023/04/23 11:57:50;;;;;;;0.20;0.20;;;21.70;54.10;;;;;;6175262;28;20043;-45
2023/04/23 12:00:58;;;;;;;0.22;0.20;;;21.90;54.20;;;;;;6175411;28;20047;-46
2023/04/23 12:03:59;;;;;;;0.15;0.15;;;21.80;54.40;;;;;;6173837;28;20043;-48
2023/04/23 12:07:05;;;;;;;0.43;0.20;;;21.70;54.50;;;;;;6173160;28;20047;-47
2023/04/23 12:10:21;;;;;;;0.20;0.20;;;22.30;54.90;;;;;;6175132;28;20514;-48
2023/04/23 12:13:27;;;;;;;0.20;0.20;;;22.00;54.60;;;;;;6175546;28;20053;-46
2023/04/23 12:16:38;;;;;;;0.10;0.10;;;21.90;54.50;;;;;;6175306;28;20114;-49
2023/04/23 12:19:43;;;;;;;0.25;0.10;;;22.10;54.80;;;;;;6173683;28;20043;-48
2023/04/23 12:22:46;;;;;;;0.10;0.10;;;22.10;54.60;;;;;;6174776;28;20046;-47
2023/04/23 12:25:47;;;;;;;0.40;0.10;;;22.20;54.60;;;;;;6174865;28;20042;-45
2023/04/23 12:28:49;;;;;;;0.10;0.10;;;22.20;54.50;;;;;;6174858;28;20483;-48
2023/04/23 12:31:52;;;;;;;0.10;0.10;;;21.80;54.10;;;;;;6175218;28;20043;-46
2023/04/23 12:34:55;;;;;;;0.00;0.00;;;21.70;53.90;;;;;;6174296;28;20051;-48
2023/04/23 12:37:57;;;;;;;0.10;0.10;;;21.90;53.90;;;;;;6173451;28;20498;-46
2023/04/23 12:41:00;;;;;;;0.32;0.32;;;21.70;53.80;;;;;;6175098;28;20047;-48
2023/04/23 12:44:02;;;;;;;0.10;0.10;;;21.80;53.60;;;;;;6173097;28;20102;-46
2023/04/23 12:47:06;;;;;;;0.10;0.10;;;21.80;53.80;;;;;;6174504;28;20050;-48
2023/04/23 12:50:08;;;;;;;0.20;0.20;;;22.10;53.80;;;;;;6174348;28;20039;-48
2023/04/23 12:53:10;;;;;;;0.13;0.13;;;21.60;53.60;;;;;;6174106;28;20510;-48
2023/04/23 12:56:11;;;;;;;0.20;0.20;;;22.10;54.00;;;;;;6174491;28;20050;-48
2023/04/23 12:59:13;;;;;;;;;;;21.80;54.10;;;;;;6174665;28;20406;-48
2023/04/23 13:02:17;;;;;;;0.20;0.20;;;21.80;54.20;;;;;;6173977;28;19922;-46
2023/04/23 13:05:19;;;;;;;0.30;0.10;;;21.70;54.20;;;;;;6174323;28;20045;-47
2023/04/23 13:08:21;;;;;;;0.20;0.17;;;21.70;54.10;;;;;;6174061;28;20136;-46
2023/04/23 13:11:23;;;;;;;0.20;0.20;;;22.00;54.60;;;;;;6173729;28;20050;-48
2023/04/23 13:14:24;;;;;;;0.10;0.10;;;22.00;54.50;;;;;;6174781;28;20411;-47
2023/04/23 13:17:26;;;;;;;0.10;0.10;;;21.80;54.90;;;;;;6178737;28;20071;-46
2023/04/23 13:20:28;;;;;;;0.10;0.10;;;22.10;55.10;;;;;;6177931;28;20053;-48
2023/04/23 13:23:29;;;;;;;;;;;21.80;55.20;;;;;;6178565;28;20047;-48
2023/04/23 13:26:31;;;;;;;;;;;21.80;55.40;;;;;;6178287;28;19921;-46
2023/04/23 13:29:33;;;;;;;0.10;0.10;;;21.70;55.10;;;;;;6176625;28;20017;-48
2023/04/23 13:32:34;;;;;;;0.38;0.10;;;21.80;55.20;;;;;;6178352;28;20043;-48
2023/04/23 13:35:36;;;;;;;0.20;0.20;;;21.90;55.80;;;;;;6178539;28;20035;-46
2023/04/23 13:38:40;;;;;;;0.10;0.10;;;21.90;56.50;;;;;;6176067;28;20043;-46
2023/04/23 13:41:43;;;;;;;0.15;0.15;;;22.00;56.10;;;;;;6177895;28;20523;-48
2023/04/23 13:44:44;;;;;;;0.10;0.10;;;21.70;56.00;;;;;;6177559;28;20053;-46
2023/04/23 13:47:46;;;;;;;0.10;0.10;;;21.80;56.10;;;;;;6177439;28;20090;-46
2023/04/23 13:50:48;;;;;;;0.20;0.20;;;21.90;56.00;;;;;;6177872;28;20054;-49
2023/04/23 13:53:50;;;;;;;0.20;0.10;;;22.20;56.00;;;;;;6177398;28;20043;-50
2023/04/23 13:56:51;;;;;;;0.10;0.10;;;21.90;55.90;;;;;;6177639;28;20483;-45
2023/04/23 13:59:54;;;;;;;;;;;22.20;56.60;;;;;;6177986;28;20046;-47
2023/04/23 14:02:55;;;;;;;0.10;0.10;;;21.90;55.80;;;;;;6177739;28;19973;-49
2023/04/23 14:05:57;;;;;;;0.10;0.10;;;21.90;55.80;;;;;;6176307;28;20038;-47
2023/04/23 14:08:59;;;;;;;0.10;0.10;;;22.00;55.50;;;;;;6177419;28;20384;-45
2023/04/23 14:12:03;;;;;;;0.17;0.15;;;22.20;70.10;;;;;;6177318;28;20479;-47
2023/04/23 14:15:06;;;;;;;0.20;0.20;;;21.90;55.50;;;;;;6176989;28;20582;-49
2023/04/23 14:18:07;;;;;;;0.10;0.10;;;22.20;55.40;;;;;;6176710;28;20050;-49
2023/04/23 14:21:09;;;;;;;0.30;0.20;;;22.30;55.40;;;;;;6176945;28;20553;-47
2023/04/23 14:24:17;;;;;;;0.30;0.30;;;21.80;55.00;;;;;;6176746;28;20043;-48
2023/04/23 14:27:18;;;;;;;0.30;0.20;;;22.20;54.80;;;;;;6175515;28;20106;-49
2023/04/23 14:30:20;;;;;;;;;;;22.00;54.80;;;;;;6177170;28;20063;-46
2023/04/23 14:33:21;;;;;;;0.10;0.10;;;22.20;54.80;;;;;;6176702;28;19922;-46
2023/04/23 14:36:23;;;;;;;0.20;0.20;;;22.40;54.80;;;;;;6176445;28;20047;-48
2023/04/23 14:39:25;;;;;;;0.20;0.20;;;22.20;54.30;;;;;;6177146;28;20047;-50
2023/04/23 14:42:27;;;;;;;0.73;0.10;;;21.80;53.80;;;;;;6175965;28;20051;-47
2023/04/23 14:45:31;;;;;;;;;;;21.90;53.50;;;;;;6176951;28;20038;-48
2023/04/23 14:48:34;;;;;;;0.20;0.20;;;22.20;53.90;;;;;;6176626;28;20348;-48
2023/04/23 14:51:36;;;;;;;0.20;0.20;;;22.20;53.70;;;;;;6176421;28;20047;-49
2023/04/23 14:54:38;;;;;;;0.22;0.22;;;21.90;53.10;;;;;;6176304;28;20495;-46
2023/04/23 14:57:40;;;;;;;0.20;0.20;;;21.90;52.70;;;;;;6176568;28;20045;-46
2023/04/23 15:00:43;;;;;;;;;;;21.90;52.70;;;;;;6177220;28;20467;-46
2023/04/23 15:03:44;;;;;;;0.30;0.17;;;22.20;52.90;;;;;;6176344;28;19926;-48
2023/04/23 15:06:46;;;;;;;0.20;0.20;;;22.20;52.60;;;;;;6176319;28;20049;-48
2023/04/23 15:09:48;;;;;;;0.20;0.20;;;21.70;52.00;;;;;;6175888;28;20069;-48
2023/04/23 15:13:03;;;;;;;0.10;0.10;;;22.10;51.90;;;;;;6175574;28;20471;-49
2023/04/23 15:16:17;;;;;;;0.20;0.20;;;22.00;51.20;;;;;;6174842;28;20411;-45
2023/04/23 15:19:18;;;;;;;0.10;0.10;;;21.90;50.60;;;;;;6175077;28;20058;-46
2023/04/23 15:22:20;;;;;;;0.30;0.20;;;22.20;50.40;;;;;;6175737;28;20054;-47
2023/04/23 15:25:23;;;;;;;0.30;0.20;;;22.10;49.90;;;;;;6175931;28;20491;-47
2023/04/23 15:28:26;;;;;;;0.30;0.30;;;22.00;49.30;;;;;;6176288;28;20043;-46
2023/04/23 15:31:27;;;;;;;0.47;0.30;;;22.30;49.00;;;;;;6175411;28;20053;-49
2023/04/23 15:34:29;;;;;;;0.20;0.20;;;21.80;48.20;;;;;;6176243;28;20047;-47
2023/04/23 15:37:30;;;;;;;;;;;22.20;48.10;;;;;;6175962;28;20039;-47
2023/04/23 15:40:40;;;;;;;0.10;0.10;;;21.80;48.10;;;;;;6175549;28;20267;-45
2023/04/23 15:43:42;;;;;;;0.30;0.30;;;22.20;48.00;;;;;;6175248;28;20042;-45
2023/04/23 15:46:43;;;;;;;;;;;21.90;47.30;;;;;;6175697;28;20042;-47
2023/04/23 15:49:45;;;;;;;0.40;0.38;;;22.50;47.80;;;;;;6175938;28;19921;-46
2023/04/23 15:52:46;;;;;;;0.40;0.40;;;21.90;47.20;;;;;;6175100;28;20504;-49
2023/04/23 15:55:52;;;;;;;0.28;0.28;;;21.70;46.70;;;;;;6175410;28;20043;-48
2023/04/23 15:58:54;;;;;;;0.55;0.40;;;21.90;46.10;;;;;;6175304;28;20054;-50
2023/04/23 16:01:55;;;;;;;;;;;22.20;46.30;;;;;;6175511;28;20078;-45
2023/04/23 16:04:57;;;;;;;0.30;0.25;;;22.20;46.60;;;;;;6174899;28;20267;-45
2023/04/23 16:07:58;;;;;;;0.30;0.30;;;21.90;46.30;;;;;;6175274;28;20062;-47
2023/04/23 16:11:02;;;;;;;0.30;0.30;;;21.80;46.00;;;;;;6174776;28;20054;-48